Time;durP1;ratioP1;P1;durP2;ratioP2;P2;SDS_P1;SDS_P2;PMS_P1;PMS_P2;Temp;Humidity;BMP_temperature;BMP_pressure;BME280_temperature;BME280_humidity;BME280_pressure;Samples;Min_cycle;Max_cycle;Signal;HPM_P1;HPM_P2
2024/03/16 00:00:57;;;;;;;20.88;14.95;;;;;;;6.20;59.50;95145.69;5025586;28;20109;-78
2024/03/16 00:03:23;;;;;;;25.85;14.55;;;;;;;6.17;59.47;95144.50;5024911;28;20603;-78
2024/03/16 00:05:48;;;;;;;20.98;14.55;;;;;;;6.18;59.51;95142.56;5025612;28;20028;-79
2024/03/16 00:08:14;;;;;;;28.08;15.88;;;;;;;6.16;59.51;95140.25;5024872;28;20025;-78
2024/03/16 00:10:39;;;;;;;27.95;15.98;;;;;;;6.13;59.42;95136.34;5025107;28;20021;-78
2024/03/16 00:13:06;;;;;;;20.85;13.98;;;;;;;6.14;59.22;95137.16;5025024;28;20032;-77
2024/03/16 00:15:32;;;;;;;23.63;14.32;;;;;;;6.14;59.41;95142.59;5024248;28;20506;-78
2024/03/16 00:17:57;;;;;;;21.80;14.65;;;;;;;6.13;59.42;95141.81;5025512;28;20026;-79
2024/03/16 00:20:25;;;;;;;28.70;15.00;;;;;;;6.12;59.71;95139.47;5024398;28;20107;-78
2024/03/16 00:22:51;;;;;;;22.30;14.80;;;;;;;6.11;60.11;95140.66;5025500;28;20021;-78
2024/03/16 00:25:17;;;;;;;26.98;15.48;;;;;;;6.11;60.13;95135.22;5024447;28;20202;-78
2024/03/16 00:27:43;;;;;;;26.67;15.18;;;;;;;6.10;59.97;95136.41;5007198;28;20056;-78
2024/03/16 00:30:10;;;;;;;24.50;14.75;;;;;;;6.12;59.84;95140.25;5024523;28;20025;-78
2024/03/16 00:32:36;;;;;;;23.88;14.45;;;;;;;6.13;59.84;95133.63;5024870;28;20095;-76
2024/03/16 00:35:03;;;;;;;23.45;15.10;;;;;;;6.08;59.70;95142.25;5024835;28;20507;-77
2024/03/16 00:37:28;;;;;;;22.90;15.15;;;;;;;6.10;59.55;95137.16;5024453;28;20468;-77
2024/03/16 00:39:54;;;;;;;24.17;15.13;;;;;;;6.07;59.57;95143.41;5025471;28;20079;-78
2024/03/16 00:42:20;;;;;;;22.42;15.32;;;;;;;6.10;59.86;95141.84;5024348;28;20017;-77
2024/03/16 00:44:45;;;;;;;23.27;14.93;;;;;;;6.03;59.90;95134.50;5025289;28;20065;-78
2024/03/16 00:47:10;;;;;;;24.77;15.38;;;;;;;5.94;60.29;95136.91;5024131;28;20111;-78
2024/03/16 00:49:36;;;;;;;20.95;14.88;;;;;;;5.85;60.76;95128.38;5024398;28;20100;-78
2024/03/16 00:52:02;;;;;;;25.35;15.50;;;;;;;5.78;60.83;95134.66;5025048;28;20025;-78
2024/03/16 00:54:27;;;;;;;27.02;16.75;;;;;;;5.84;60.71;95132.25;5024375;28;20071;-78
2024/03/16 00:56:53;;;;;;;25.23;16.42;;;;;;;5.79;60.80;95117.13;5025611;28;20069;-78
2024/03/16 00:59:19;;;;;;;24.05;15.30;;;;;;;5.80;60.94;95120.63;5024123;28;20028;-79
2024/03/16 01:01:44;;;;;;;24.75;15.02;;;;;;;5.79;60.76;95125.31;5025251;28;20057;-79
2024/03/16 01:04:10;;;;;;;22.48;14.80;;;;;;;5.80;60.49;95134.25;5023755;28;20083;-78
2024/03/16 01:06:36;;;;;;;26.33;14.85;;;;;;;5.80;60.49;95123.34;5024625;28;20050;-79
2024/03/16 01:09:03;;;;;;;20.10;14.57;;;;;;;5.82;60.50;95129.16;5024343;28;20574;-79
2024/03/16 01:11:28;;;;;;;22.60;14.93;;;;;;;5.81;60.46;95135.81;5006718;28;20396;-78
2024/03/16 01:13:54;;;;;;;23.08;14.77;;;;;;;5.80;60.42;95129.59;5024688;28;20458;-78
2024/03/16 01:16:19;;;;;;;24.45;15.00;;;;;;;5.80;60.32;95134.25;5023507;28;20121;-78
2024/03/16 01:18:45;;;;;;;23.55;15.15;;;;;;;5.80;60.27;95128.81;5024784;28;20484;-78
2024/03/16 01:21:10;;;;;;;18.88;13.77;;;;;;;5.76;60.59;95130.78;5023885;28;20180;-78
2024/03/16 01:23:37;;;;;;;22.40;15.15;;;;;;;5.76;60.49;95128.06;5024595;28;20087;-78
2024/03/16 01:26:05;;;;;;;20.73;14.57;;;;;;;5.75;60.69;95131.97;5006459;28;20026;-78
2024/03/16 01:28:32;;;;;;;23.98;16.05;;;;;;;5.74;60.69;95119.50;5024017;28;20060;-78
2024/03/16 01:30:57;;;;;;;24.80;16.05;;;;;;;5.71;61.24;95129.25;5024383;28;20482;-78
2024/03/16 01:33:24;;;;;;;24.63;16.25;;;;;;;5.67;61.52;95124.97;5023662;28;20053;-78
2024/03/16 01:35:49;;;;;;;23.58;15.77;;;;;;;5.66;61.57;95120.72;5024848;28;20440;-78
2024/03/16 01:38:15;;;;;;;27.85;16.30;;;;;;;5.64;61.84;95117.63;5006102;28;20037;-78
2024/03/16 01:40:41;;;;;;;24.23;16.50;;;;;;;5.65;61.78;95125.41;5024782;28;20081;-78
2024/03/16 01:43:09;;;;;;;23.27;15.60;;;;;;;5.68;61.79;95130.06;5024180;28;20052;-78
2024/03/16 01:45:34;;;;;;;24.75;15.85;;;;;;;5.69;61.96;95128.88;5006638;28;20037;-78
2024/03/16 01:48:03;;;;;;;23.48;15.02;;;;;;;5.71;61.81;95126.53;5024299;28;20030;-78
2024/03/16 01:50:29;;;;;;;23.58;15.85;;;;;;;5.72;61.68;95130.78;5006014;28;20626;-78
2024/03/16 01:52:54;;;;;;;23.77;15.02;;;;;;;5.70;61.59;95126.94;5024690;28;20018;-78
2024/03/16 01:55:20;;;;;;;22.33;14.93;;;;;;;5.70;61.94;95135.09;5023755;28;20029;-78
2024/03/16 01:57:46;;;;;;;22.35;14.77;;;;;;;5.73;61.46;95135.06;5024868;28;20025;-78
2024/03/16 02:00:12;;;;;;;20.40;13.95;;;;;;;5.67;61.74;95133.94;5023931;28;20029;-78
2024/03/16 02:02:38;;;;;;;23.33;14.75;;;;;;;5.59;61.92;95127.78;5009713;28;20509;-78
2024/03/16 02:05:07;;;;;;;22.23;14.23;;;;;;;5.59;62.07;95132.44;5027195;28;20366;-77
2024/03/16 02:07:33;;;;;;;24.73;15.48;;;;;;;5.58;61.89;95134.41;5027061;28;20515;-78
2024/03/16 02:10:04;;;;;;;20.67;14.32;;;;;;;5.56;61.82;95127.78;5027706;28;20583;-77
2024/03/16 02:12:29;;;;;;;20.92;14.88;;;;;;;5.59;61.93;95132.44;5026717;28;20800;-78
2024/03/16 02:14:55;;;;;;;22.48;14.40;;;;;;;5.57;61.93;95129.34;5027598;28;20030;-78
2024/03/16 02:17:20;;;;;;;18.48;13.77;;;;;;;5.55;61.72;95124.28;5026380;28;20045;-78
2024/03/16 02:19:47;;;;;;;22.17;13.63;;;;;;;5.57;61.95;95129.34;5027549;28;20041;-78
2024/03/16 02:22:13;;;;;;;23.13;14.45;;;;;;;5.61;61.84;95121.91;5027032;28;20634;-77
2024/03/16 02:24:38;;;;;;;19.58;14.27;;;;;;;5.61;61.71;95135.53;5027273;28;20483;-78
2024/03/16 02:27:04;;;;;;;20.15;14.10;;;;;;;5.62;61.67;95145.31;5009542;28;20115;-78
2024/03/16 02:29:35;;;;;;;20.27;13.77;;;;;;;5.63;61.75;95141.41;5026587;28;20026;-78
2024/03/16 02:32:01;;;;;;;25.40;16.15;;;;;;;5.65;61.69;95139.03;5027622;28;20113;-77
2024/03/16 02:34:26;;;;;;;22.05;14.07;;;;;;;5.67;61.60;95133.94;5026549;28;20096;-78
2024/03/16 02:36:52;;;;;;;24.05;14.98;;;;;;;5.67;61.79;95142.13;5027588;28;20116;-78
2024/03/16 02:39:19;;;;;;;23.02;15.05;;;;;;;5.62;61.94;95136.31;5026871;28;20101;-78
2024/03/16 02:41:45;;;;;;;22.63;16.08;;;;;;;5.65;61.83;95133.56;5026897;28;20411;-78
2024/03/16 02:44:11;;;;;;;22.17;16.10;;;;;;;5.64;61.75;95132.03;5009140;28;20437;-78
2024/03/16 02:46:36;;;;;;;23.95;16.73;;;;;;;5.57;61.63;95138.31;5026693;28;20411;-77
2024/03/16 02:49:02;;;;;;;21.85;14.95;;;;;;;5.62;61.47;95147.22;5027284;28;20020;-77
2024/03/16 02:51:27;;;;;;;21.58;15.25;;;;;;;5.62;61.50;95145.31;5026015;28;20519;-78
2024/03/16 02:53:56;;;;;;;20.95;14.40;;;;;;;5.64;61.03;95153.06;5027085;28;20134;-77
2024/03/16 02:56:21;;;;;;;21.05;15.07;;;;;;;5.57;61.50;95159.34;5026229;28;20340;-79
2024/03/16 02:58:47;;;;;;;21.50;14.07;;;;;;;5.57;61.18;95157.41;5026774;28;20474;-76
2024/03/16 03:01:13;;;;;;;21.52;14.65;;;;;;;5.55;61.42;95153.50;5026451;28;20030;-78
2024/03/16 03:03:38;;;;;;;19.27;13.27;;;;;;;5.52;61.60;95151.59;5026459;28;20028;-77
2024/03/16 03:06:04;;;;;;;20.27;13.32;;;;;;;5.50;61.56;95149.25;5026867;28;20018;-78
2024/03/16 03:08:32;;;;;;;23.45;13.75;;;;;;;5.51;61.37;95147.31;5025719;28;20487;-77
2024/03/16 03:10:58;;;;;;;20.48;13.23;;;;;;;5.48;61.41;95151.59;5027100;28;20037;-78
2024/03/16 03:13:23;;;;;;;18.95;12.10;;;;;;;5.45;61.58;95149.69;5025273;28;20018;-77
2024/03/16 03:15:49;;;;;;;17.52;11.70;;;;;;;5.42;61.50;95149.69;5026195;28;20048;-78
2024/03/16 03:18:14;;;;;;;20.13;12.68;;;;;;;5.43;61.02;95149.28;5025836;28;20033;-78
2024/03/16 03:20:39;;;;;;;19.15;12.68;;;;;;;5.37;61.02;95141.94;5026221;28;20025;-78
2024/03/16 03:23:07;;;;;;;17.58;12.38;;;;;;;5.33;61.17;95144.66;5026043;28;20442;-78
2024/03/16 03:25:32;;;;;;;14.15;10.63;;;;;;;5.27;61.15;95141.56;5026067;28;20033;-78
2024/03/16 03:27:58;;;;;;;16.27;10.55;;;;;;;5.29;61.07;95144.69;5026220;28;20033;-78
2024/03/16 03:30:23;;;;;;;17.02;11.70;;;;;;;5.22;61.03;95141.25;5025730;28;20032;-78
2024/03/16 03:32:49;;;;;;;19.35;12.00;;;;;;;5.24;61.04;95157.97;5026498;28;20130;-77
2024/03/16 03:35:14;;;;;;;15.98;10.52;;;;;;;5.31;60.95;95164.16;5025643;28;20415;-78
2024/03/16 03:37:39;;;;;;;16.38;10.77;;;;;;;5.27;60.79;95152.47;5026288;28;20460;-77
2024/03/16 03:40:05;;;;;;;17.80;10.95;;;;;;;5.22;61.13;95155.66;5025682;28;20056;-77
2024/03/16 03:42:33;;;;;;;17.17;10.57;;;;;;;5.22;60.75;95149.41;5025543;28;20480;-77
2024/03/16 03:45:14;;;;;;;19.33;11.27;;;;;;;5.22;60.94;95152.91;5025314;28;20476;-78
2024/03/16 03:50:28;;;;;;;16.63;11.02;;;;;;;5.25;60.68;95159.50;5026457;28;20510;-78
2024/03/16 03:52:55;;;;;;;19.67;11.73;;;;;;;5.25;60.75;95159.50;5024955;28;20430;-77
2024/03/16 03:55:23;;;;;;;16.17;11.43;;;;;;;5.27;60.91;95166.09;5008009;28;20030;-78
2024/03/16 03:57:49;;;;;;;16.67;11.80;;;;;;;5.30;60.90;95170.00;5025123;28;20017;-79
2024/03/16 04:00:15;;;;;;;17.85;11.52;;;;;;;5.27;60.71;95163.38;5025319;28;20033;-78
2024/03/16 04:02:41;;;;;;;15.75;11.55;;;;;;;5.21;60.92;95156.03;5025479;28;20380;-79
2024/03/16 04:05:06;;;;;;;17.20;11.00;;;;;;;5.11;61.29;95151.41;5007267;28;20553;-78
2024/03/16 04:07:32;;;;;;;17.67;12.02;;;;;;;5.14;61.21;95158.78;5025907;28;20120;-77
2024/03/16 04:09:57;;;;;;;15.70;11.00;;;;;;;5.16;61.06;95162.69;5025110;28;20022;-77
2024/03/16 04:12:22;;;;;;;18.02;11.15;;;;;;;5.15;61.19;95158.38;5009442;28;20104;-77
2024/03/16 04:14:48;;;;;;;17.33;11.90;;;;;;;5.12;61.20;95151.00;5025624;28;20025;-78
2024/03/16 04:17:13;;;;;;;17.83;12.25;;;;;;;5.17;61.22;95171.63;5026007;28;20092;-78
2024/03/16 04:19:38;;;;;;;16.98;11.18;;;;;;;5.19;60.95;95169.28;5025492;28;20037;-78
2024/03/16 04:22:05;;;;;;;15.13;10.68;;;;;;;5.16;61.17;95168.13;5024578;28;20409;-78
2024/03/16 04:24:30;;;;;;;18.50;10.90;;;;;;;5.23;61.02;95173.56;5025625;28;20075;-77
2024/03/16 04:26:55;;;;;;;20.13;11.07;;;;;;;5.28;61.06;95175.09;5006689;28;20033;-78
2024/03/16 04:29:21;;;;;;;16.92;11.80;;;;;;;5.33;60.86;95177.38;5025739;28;20064;-77
2024/03/16 04:31:46;;;;;;;14.77;10.73;;;;;;;5.30;60.79;95184.41;5025028;28;20479;-78
2024/03/16 04:34:12;;;;;;;18.75;11.73;;;;;;;5.29;61.13;95182.09;5025250;28;20057;-78
2024/03/16 04:36:37;;;;;;;16.27;12.13;;;;;;;5.28;61.30;95191.44;5024777;28;20025;-77
2024/03/16 04:39:02;;;;;;;24.67;13.52;;;;;;;5.26;60.98;95178.19;5024821;28;20029;-77
2024/03/16 04:41:28;;;;;;;24.70;13.60;;;;;;;5.31;61.09;95185.19;5024703;28;20082;-76
2024/03/16 04:43:53;;;;;;;21.98;13.30;;;;;;;5.33;61.01;95196.47;5024210;28;20028;-77
2024/03/16 04:46:19;;;;;;;20.00;12.15;;;;;;;5.33;60.90;95186.34;5025220;28;20029;-78
2024/03/16 04:48:44;;;;;;;19.10;12.02;;;;;;;5.37;60.66;95194.50;5024581;28;20413;-77
2024/03/16 04:51:10;;;;;;;16.15;11.35;;;;;;;5.38;60.85;95198.00;5025003;28;20061;-77
2024/03/16 04:53:35;;;;;;;22.23;11.73;;;;;;;5.37;60.77;95197.22;5024579;28;20033;-77
2024/03/16 04:56:01;;;;;;;15.20;11.07;;;;;;;5.38;60.71;95189.81;5024439;28;20044;-77
2024/03/16 04:58:26;;;;;;;15.85;11.20;;;;;;;5.39;60.89;95189.44;5024595;28;20026;-77
2024/03/16 05:00:51;;;;;;;16.42;10.43;;;;;;;5.39;60.79;95188.66;5024470;28;20454;-78
2024/03/16 05:03:17;;;;;;;16.00;10.85;;;;;;;5.42;60.79;95188.63;5024986;28;20032;-78
2024/03/16 05:05:43;;;;;;;18.15;11.95;;;;;;;5.42;60.93;95185.91;5024191;28;20538;-76
2024/03/16 05:08:09;;;;;;;17.40;11.05;;;;;;;5.43;61.03;95189.41;5025335;28;20037;-77
2024/03/16 05:10:34;;;;;;;16.73;11.00;;;;;;;5.47;61.09;95193.69;5024108;28;20026;-77
2024/03/16 05:13:00;;;;;;;16.48;11.48;;;;;;;5.44;61.09;95191.75;5024640;28;20029;-77
2024/03/16 05:15:25;;;;;;;18.98;12.70;;;;;;;5.42;61.04;95190.59;5023682;28;20029;-77
2024/03/16 05:17:50;;;;;;;20.35;14.52;;;;;;;5.46;61.22;95188.63;5024531;28;20032;-77
2024/03/16 05:20:16;;;;;;;19.60;12.60;;;;;;;5.48;60.97;95178.88;5023940;28;20117;-76
2024/03/16 05:22:41;;;;;;;16.60;11.82;;;;;;;5.43;61.30;95182.00;5024301;28;20026;-77
2024/03/16 05:25:07;;;;;;;16.33;12.07;;;;;;;5.41;61.50;95187.09;5024302;28;20021;-77
2024/03/16 05:27:32;;;;;;;19.88;13.23;;;;;;;5.46;61.29;95197.59;5023813;28;20021;-76
2024/03/16 05:29:58;;;;;;;22.13;14.77;;;;;;;5.47;61.36;95199.13;5024865;28;20080;-77
2024/03/16 05:32:23;;;;;;;20.88;14.20;;;;;;;5.48;61.03;95197.19;5023586;28;20083;-76
2024/03/16 05:34:49;;;;;;;26.50;16.23;;;;;;;5.52;60.84;95195.22;5024588;28;20026;-76
2024/03/16 05:37:15;;;;;;;26.42;15.27;;;;;;;5.51;60.84;95186.25;5026796;28;20160;-76
2024/03/16 05:39:40;;;;;;;21.00;14.27;;;;;;;5.56;60.40;95193.22;5028205;28;20431;-76
2024/03/16 05:42:06;;;;;;;21.92;14.68;;;;;;;5.65;60.53;95195.53;5028082;28;20064;-77
2024/03/16 05:44:31;;;;;;;22.63;13.88;;;;;;;5.69;60.54;95196.31;5027609;28;20106;-76
2024/03/16 05:46:56;;;;;;;20.13;13.45;;;;;;;5.73;60.46;95199.75;5028653;28;20040;-79
2024/03/16 05:49:22;;;;;;;21.58;14.15;;;;;;;5.75;60.28;95197.44;5027389;28;20023;-76
2024/03/16 05:51:48;;;;;;;21.77;13.65;;;;;;;5.75;60.18;95192.75;5028520;28;20731;-76
2024/03/16 05:54:13;;;;;;;25.00;14.50;;;;;;;5.80;60.24;95195.06;5027128;28;20033;-76
2024/03/16 05:56:39;;;;;;;25.05;16.23;;;;;;;5.78;60.22;95197.38;5027877;28;20065;-77
2024/03/16 05:59:08;;;;;;;27.30;18.45;;;;;;;5.80;60.24;95200.50;5027827;28;20080;-77
2024/03/16 06:01:34;;;;;;;29.35;18.20;;;;;;;5.79;60.36;95207.16;5027592;28;20040;-77
2024/03/16 06:03:59;;;;;;;33.08;17.98;;;;;;;5.91;60.16;95208.66;5027846;28;20399;-77
2024/03/16 06:06:25;;;;;;;26.08;16.48;;;;;;;6.00;60.00;95206.25;5026744;28;20412;-76
2024/03/16 06:08:50;;;;;;;25.33;15.88;;;;;;;6.05;59.95;95213.25;5028198;28;20075;-76
2024/03/16 06:11:15;;;;;;;25.48;16.10;;;;;;;6.12;59.29;95213.19;5026706;28;20500;-77
2024/03/16 06:13:41;;;;;;;25.17;14.98;;;;;;;6.12;59.76;95215.91;5027731;28;20033;-77
2024/03/16 06:16:06;;;;;;;26.13;15.68;;;;;;;6.17;59.71;95211.97;5026790;28;20022;-77
2024/03/16 06:18:32;;;;;;;23.10;13.60;;;;;;;6.22;59.55;95225.22;5009196;28;20049;-77
2024/03/16 06:20:57;;;;;;;22.08;14.55;;;;;;;6.21;59.40;95212.75;5027421;28;20022;-77
2024/03/16 06:23:22;;;;;;;25.70;13.70;;;;;;;6.29;59.50;95222.41;5026858;28;20117;-77
2024/03/16 06:25:49;;;;;;;19.38;12.48;;;;;;;6.36;59.40;95222.34;5027903;28;20029;-77
2024/03/16 06:28:21;;;;;;;20.88;12.50;;;;;;;6.39;59.34;95219.59;5026622;28;20017;-80
2024/03/16 06:30:49;;;;;;;17.77;12.68;;;;;;;6.38;59.25;95226.25;5027912;28;20021;-76
2024/03/16 06:33:37;;;;;;;22.10;13.90;;;;;;;6.45;59.37;95216.44;5026471;28;20040;-78
2024/03/16 06:36:01;;;;;;;17.35;12.82;;;;;;;6.53;59.26;95229.63;5026272;28;20037;-77
2024/03/16 06:38:26;;;;;;;19.70;13.80;;;;;;;6.56;59.13;95222.59;5026999;28;20017;-77
2024/03/16 06:40:52;;;;;;;18.83;13.75;;;;;;;6.55;58.85;95212.84;5026628;28;20569;-77
2024/03/16 06:43:17;;;;;;;22.02;14.27;;;;;;;6.66;59.09;95216.28;5027547;28;20029;-77
2024/03/16 06:45:43;;;;;;;18.70;13.68;;;;;;;6.77;58.65;95213.44;5026537;28;20083;-78
2024/03/16 06:48:09;;;;;;;23.45;14.57;;;;;;;6.89;58.46;95212.91;5026265;28;20032;-78
2024/03/16 06:50:36;;;;;;;22.77;13.82;;;;;;;6.93;58.40;95225.34;5026701;28;20017;-76
2024/03/16 06:53:02;;;;;;;22.52;15.00;;;;;;;7.03;58.28;95217.44;5026813;28;20029;-76
2024/03/16 06:55:27;;;;;;;21.25;14.20;;;;;;;7.01;58.15;95212.41;5026524;28;20498;-75
2024/03/16 06:57:52;;;;;;;24.45;14.48;;;;;;;7.09;58.01;95224.03;4992219;28;20025;-77
2024/03/16 07:00:18;;;;;;;26.85;14.98;;;;;;;7.22;57.64;95218.81;5009189;28;20532;-78
2024/03/16 07:02:43;;;;;;;28.05;16.35;;;;;;;7.27;57.70;95216.41;5026006;28;20032;-78
2024/03/16 07:05:09;;;;;;;31.40;16.70;;;;;;;7.35;57.61;95222.56;5028105;28;20052;-80
2024/03/16 07:07:35;;;;;;;25.90;16.67;;;;;;;7.40;57.40;95219.41;5026140;28;20022;-77
2024/03/16 07:10:01;;;;;;;22.63;14.52;;;;;;;7.40;57.18;95213.91;4992862;28;20026;-78
2024/03/16 07:12:26;;;;;;;23.50;14.57;;;;;;;7.45;57.18;95216.97;5008555;28;20022;-79
2024/03/16 07:14:51;;;;;;;20.42;13.82;;;;;;;7.59;56.87;95221.50;5008210;28;20487;-80
2024/03/16 07:17:17;;;;;;;21.17;13.48;;;;;;;7.72;56.17;95218.97;5026632;28;20022;-80
2024/03/16 07:19:42;;;;;;;22.60;14.25;;;;;;;7.94;55.98;95225.72;5025328;28;20072;-79
2024/03/16 07:22:07;;;;;;;21.92;14.02;;;;;;;8.12;55.27;95219.97;5026723;28;20060;-79
2024/03/16 07:24:34;;;;;;;23.95;14.27;;;;;;;8.21;54.81;95220.25;5025260;28;20026;-78
2024/03/16 07:26:59;;;;;;;19.50;13.57;;;;;;;8.11;54.79;95207.47;5026646;28;20032;-79
2024/03/16 07:29:25;;;;;;;23.50;14.30;;;;;;;8.26;54.94;95224.47;5025619;28;20022;-77
2024/03/16 07:31:50;;;;;;;23.33;14.45;;;;;;;8.35;55.04;95221.19;5025761;28;20025;-79
2024/03/16 07:34:16;;;;;;;23.20;14.77;;;;;;;8.44;54.64;95218.75;5025432;28;20100;-79
2024/03/16 07:36:42;;;;;;;22.48;14.45;;;;;;;8.50;54.67;95225.31;5025259;28;20052;-81
2024/03/16 07:39:08;;;;;;;20.95;13.95;;;;;;;8.62;54.42;95218.44;5008125;28;20389;-81
2024/03/16 07:41:34;;;;;;;21.13;13.93;;;;;;;8.66;54.54;95225.44;5006953;28;20092;-79
2024/03/16 07:44:00;;;;;;;23.00;14.70;;;;;;;8.75;54.29;95220.16;5026402;28;20351;-79
2024/03/16 07:46:26;;;;;;;21.33;15.48;;;;;;;8.93;54.04;95236.31;5025309;28;20025;-81
2024/03/16 07:48:51;;;;;;;22.05;13.57;;;;;;;9.04;53.76;95233.38;5007989;28;20029;-79
2024/03/16 07:51:17;;;;;;;20.05;13.65;;;;;;;9.14;53.20;95224.19;5024467;28;20472;-79
2024/03/16 07:53:42;;;;;;;20.48;14.55;;;;;;;9.12;53.13;95209.31;5026806;28;20025;-81
2024/03/16 08:17:07;;;;;;;24.92;16.65;;;;;;;10.72;50.42;95214.09;5181131;27;20429;-85
2024/03/16 08:19:32;;;;;;;20.35;14.23;;;;;;;10.84;49.62;95210.66;5166309;27;20063;-85
2024/03/16 08:21:58;;;;;;;20.90;14.43;;;;;;;10.96;49.15;95200.16;5153547;27;20105;-87
2024/03/16 08:24:23;;;;;;;23.55;14.52;;;;;;;11.13;48.99;95204.44;5146742;27;20023;-85
2024/03/16 08:26:48;;;;;;;19.33;14.40;;;;;;;11.31;48.63;95203.94;5145165;27;20098;-85
2024/03/16 08:29:14;;;;;;;20.77;14.35;;;;;;;11.50;48.17;95205.00;5146595;27;20023;-86
2024/03/16 08:31:39;;;;;;;18.55;12.95;;;;;;;11.60;48.01;95204.69;5147004;27;20182;-86
2024/03/16 08:34:05;;;;;;;15.98;13.27;;;;;;;11.87;47.06;95198.84;5146428;27;20076;-85
2024/03/16 08:36:30;;;;;;;17.38;12.35;;;;;;;12.10;46.72;95194.19;5145873;27;20054;-87
2024/03/16 08:38:56;;;;;;;16.65;12.23;;;;;;;12.36;45.94;95190.25;5147188;27;20023;-86
2024/03/16 08:41:22;;;;;;;20.45;13.35;;;;;;;12.62;45.57;95191.00;5146514;27;20576;-87
2024/03/16 08:43:48;;;;;;;18.13;12.75;;;;;;;12.90;44.55;95191.25;5145505;27;20110;-87
2024/03/16 08:46:14;;;;;;;19.38;12.73;;;;;;;13.10;43.55;95174.41;5146753;27;20110;-87
2024/03/16 08:48:39;;;;;;;20.20;12.25;;;;;;;13.34;43.75;95186.59;5146799;27;20110;-86
2024/03/16 08:51:05;;;;;;;17.77;12.93;;;;;;;13.68;43.16;95185.75;5145867;27;20113;-86
2024/03/16 08:53:30;;;;;;;19.27;12.50;;;;;;;14.05;42.65;95189.50;5145295;27;20027;-86
2024/03/16 08:55:58;;;;;;;18.67;12.32;;;;;;;14.45;41.15;95185.97;5145894;27;20083;-87
2024/03/16 08:58:26;;;;;;;17.58;11.60;;;;;;;14.75;40.14;95178.88;5145913;27;20076;-86
2024/03/16 09:00:55;;;;;;;17.08;11.13;;;;;;;15.08;38.99;95175.50;5145224;27;20090;-88
2024/03/16 09:03:20;;;;;;;14.98;10.25;;;;;;;15.39;38.20;95180.91;5146060;27;20038;-86
2024/03/16 09:05:46;;;;;;;13.32;10.20;;;;;;;15.64;37.08;95177.06;5144565;27;20034;-86
2024/03/16 09:08:11;;;;;;;13.73;10.27;;;;;;;15.95;36.69;95182.41;5145435;27;20019;-86
2024/03/16 09:10:37;;;;;;;14.35;10.15;;;;;;;16.27;35.33;95174.59;5144888;27;20523;-85
2024/03/16 09:13:03;;;;;;;16.95;10.82;;;;;;;16.50;34.58;95171.09;5146792;27;20023;-86
2024/03/16 09:15:28;;;;;;;15.35;8.77;;;;;;;16.81;34.38;95172.81;5146407;27;20046;-86
2024/03/16 09:17:54;;;;;;;13.02;10.00;;;;;;;17.02;33.40;95157.84;5130542;27;20477;-87
2024/03/16 09:20:19;;;;;;;10.15;8.35;;;;;;;17.28;32.96;95165.69;5131600;27;20084;-86
2024/03/16 09:22:44;;;;;;;14.40;8.50;;;;;;;17.51;32.21;95167.66;5129441;27;20015;-87
2024/03/16 09:25:11;;;;;;;13.35;9.23;;;;;;;17.73;32.92;95162.53;5130438;27;20015;-87
2024/03/16 09:27:36;;;;;;;14.43;10.18;;;;;;;18.01;33.04;95163.03;5128124;27;20023;-86
2024/03/16 09:30:11;;;;;;;15.82;9.20;;;;;;;18.26;31.09;95158.88;5143713;27;20258;-87
2024/03/16 09:32:36;;;;;;;9.55;8.13;;;;;;;18.51;30.21;95156.72;5139850;27;20119;-87
2024/03/16 09:35:06;;;;;;;10.48;8.05;;;;;;;18.90;29.96;95165.66;5130234;27;20110;-88
2024/03/16 09:37:31;;;;;;;15.25;8.15;;;;;;;19.32;29.71;95161.59;5131713;27;20377;-88
2024/03/16 09:39:57;;;;;;;11.43;7.72;;;;;;;19.73;29.48;95161.59;5129324;27;20044;-88
2024/03/16 09:42:22;;;;;;;14.68;8.20;;;;;;;20.21;28.68;95152.63;5130425;27;20027;-89
2024/03/16 09:44:48;;;;;;;12.52;8.18;;;;;;;20.73;28.11;95160.91;5129674;27;20031;-89
2024/03/16 09:47:15;;;;;;;10.48;7.78;;;;;;;21.34;27.25;95164.06;5130101;27;20027;-89
2024/03/16 09:49:41;;;;;;;11.57;7.72;;;;;;;21.90;26.34;95146.63;5129832;27;20058;-88
2024/03/16 09:52:10;;;;;;;9.93;7.88;;;;;;;22.72;24.98;95149.97;5129649;27;20064;-88
2024/03/16 09:54:37;;;;;;;11.05;6.43;;;;;;;23.40;23.82;95153.38;5130586;27;20354;-89
2024/03/16 09:57:03;;;;;;;9.85;6.65;;;;;;;24.09;23.40;95156.09;5130841;27;20019;-88
2024/03/16 09:59:28;;;;;;;8.82;6.68;;;;;;;24.79;22.11;95164.22;5131130;27;20073;-90
2024/03/16 10:01:54;;;;;;;7.88;6.38;;;;;;;25.57;21.59;95157.72;5128265;27;20019;-89
2024/03/16 10:04:19;;;;;;;8.73;6.82;;;;;;;26.37;20.45;95144.84;5113383;27;20027;-90
2024/03/16 10:06:45;;;;;;;10.73;6.90;;;;;;;26.94;19.82;95144.66;5129397;27;20117;-90
2024/03/16 10:09:12;;;;;;;13.32;10.10;;;;;;;27.74;19.18;95153.91;5131366;27;20023;-90
2024/03/16 10:11:37;;;;;;;9.38;6.90;;;;;;;27.88;18.74;95146.19;5113060;27;20039;-90
2024/03/16 10:14:05;;;;;;;8.40;6.97;;;;;;;27.32;18.66;95148.09;5128334;27;20053;-89
2024/03/16 10:16:34;;;;;;;8.18;7.38;;;;;;;26.63;19.52;95149.06;5133415;27;20039;-91
2024/03/16 10:19:00;;;;;;;8.63;6.88;;;;;;;26.15;20.30;95145.19;5133163;27;20027;-90
2024/03/16 10:21:29;;;;;;;10.48;7.30;;;;;;;25.75;20.98;95144.22;5139200;27;20026;-91
2024/03/16 10:23:58;;;;;;;8.85;7.95;;;;;;;25.59;21.21;95143.16;5134700;27;20077;-90
2024/03/16 10:26:24;;;;;;;12.52;8.30;;;;;;;25.52;21.43;95141.72;5136067;27;20119;-90
2024/03/16 10:28:50;;;;;;;12.60;8.20;;;;;;;25.36;21.30;95142.66;5129129;27;20019;-90
2024/03/16 10:31:16;;;;;;;8.48;7.25;;;;;;;25.49;21.20;95136.38;5129968;27;20043;-91
2024/03/16 10:33:43;;;;;;;9.85;7.10;;;;;;;25.37;21.11;95130.13;5130784;27;20114;-91
2024/03/16 10:36:15;;;;;;;9.98;7.65;;;;;;;25.27;21.40;95134.59;5110304;27;20038;-91
2024/03/16 10:38:42;;;;;;;11.77;7.20;;;;;;;25.34;21.37;95134.75;5130123;27;20042;-90
2024/03/16 10:41:10;;;;;;;14.38;9.98;;;;;;;25.08;22.17;95137.38;5110334;27;20109;-92
2024/03/16 10:43:36;;;;;;;16.73;9.73;;;;;;;25.27;21.65;95132.53;5130263;27;20061;-91
2024/03/16 10:46:01;;;;;;;10.80;7.75;;;;;;;25.03;21.78;95127.66;5134823;27;20035;-91
2024/03/16 10:48:27;;;;;;;10.88;8.23;;;;;;;24.91;21.83;95120.66;5135291;27;20034;-91
2024/03/16 10:50:54;;;;;;;15.32;7.63;;;;;;;25.33;21.60;95119.16;5129659;27;20027;-91
2024/03/16 10:53:19;;;;;;;10.25;6.88;;;;;;;26.08;20.49;95112.00;5127973;27;20558;-92
2024/03/16 10:55:46;;;;;;;10.15;6.82;;;;;;;25.74;20.71;95118.13;5131573;27;20508;-92
2024/03/16 10:58:25;;;;;;;7.95;6.70;;;;;;;26.21;20.43;95115.66;5110873;27;20404;-91
2024/03/16 11:00:56;;;;;;;8.98;6.90;;;;;;;26.78;19.77;95114.72;5133273;27;20539;-91
2024/03/16 11:03:30;;;;;;;9.10;6.38;;;;;;;27.76;19.25;95103.31;5128688;27;20059;-92
2024/03/16 11:06:01;;;;;;;8.75;6.93;;;;;;;28.97;17.42;95107.84;5130188;27;20055;-93
2024/03/16 11:08:37;;;;;;;9.98;6.97;;;;;;;29.93;17.39;95112.28;5138845;27;20489;-93
2024/03/16 11:11:04;;;;;;;7.40;6.03;;;;;;;30.87;16.51;95099.25;5132349;27;20023;-93
2024/03/16 11:13:30;;;;;;;9.18;6.45;;;;;;;31.50;15.85;95098.56;5133882;27;20031;-93
2024/03/16 11:15:57;;;;;;;7.18;5.80;;;;;;;32.12;14.88;95107.59;5112505;27;20548;-91
2024/03/16 11:18:22;;;;;;;9.05;6.13;;;;;;;33.00;14.59;95105.28;5132770;27;20134;-92
2024/03/16 11:20:55;;;;;;;11.68;6.88;;;;;;;33.63;14.30;95098.38;5129389;27;20481;-92
2024/03/16 11:23:24;;;;;;;12.15;8.18;;;;;;;34.21;13.30;95106.59;5112094;27;20054;-92
2024/03/16 11:25:50;;;;;;;7.13;6.43;;;;;;;32.87;14.07;95087.75;5131987;27;20027;-92
2024/03/16 11:28:17;;;;;;;9.90;6.22;;;;;;;33.70;13.13;95091.09;5130833;27;20031;-93
2024/03/16 11:30:43;;;;;;;8.85;6.40;;;;;;;34.11;13.08;95083.72;5131704;27;20023;-93
2024/03/16 11:33:19;;;;;;;9.52;5.60;;;;;;;34.77;12.46;95078.19;5130524;27;20030;-91
2024/03/16 11:35:45;;;;;;;5.60;5.03;;;;;;;35.45;12.46;95069.78;5129166;27;20047;-92
2024/03/16 11:38:11;;;;;;;11.20;6.28;;;;;;;35.82;11.83;95067.50;5129318;27;20058;-93
2024/03/16 11:40:40;;;;;;;7.70;5.18;;;;;;;35.87;12.38;95055.75;5127991;27;20034;-91
2024/03/16 11:43:15;;;;;;;11.43;6.10;;;;;;;34.12;13.08;95058.81;5134637;27;20026;-95